Información del aeropuerto LPMA

Información de pista
Pista 05 Longitud 9110 ft Anchura 148 ft
Elevación 147 ft Umbral 480 ft Rumbo 45
Pista 23 Longitud 9110 ft Anchura 148 ft
Elevación 192 ft Umbral 490 ft Rumbo 225
Frecuencias del aeropuerto
Tipo APP Nombre APP Frecuencia 119.2 MHZ
Tipo TWR Nombre TWR Frecuencia 118.35 MHZ
Radioayudas del aeropuerto
Tipo VOR-DME Nombre Madeira Frecuencia 112200 KHZ
Tipo NDB Nombre Madeira Frecuencia 318 KHZ
Información meteorológica del aeropuerto y NOTAM
ADDS - METARS form results

(2141 UTC 19 May 2022)
Data provider http://aviationweather.gov/metar/data/
 
METAR text: LPMA 192130Z 03007KT 360V060 9999 SCT013 20/18 Q1017
Conditions at: LPMA (FUNCHAL/MADEIRA , PT) observed 2130 UTC 19 May 2022
Temperature: 20.0°C (68°F)
Dewpoint: 18.0°C (64°F) [RH = 88%]
Pressure (altimeter): 30.03 inches Hg (1017.0 mb)
Winds: from the NNE (30 degrees) at 8 MPH (7 knots; 3.6 m/s)
Visibility: 6 or more miles (10+ km)
Ceiling: at least 12,000 feet AGL
Clouds: scattered clouds at 1300 feet AGL
Weather: no significant weather observed at this time

METAR text: LPMA 192100Z 02004KT 350V050 9999 SCT013 BKN030 20/17 Q1017
Conditions at: LPMA (FUNCHAL/MADEIRA , PT) observed 2100 UTC 19 May 2022
Temperature: 20.0°C (68°F)
Dewpoint: 17.0°C (63°F) [RH = 83%]
Pressure (altimeter): 30.03 inches Hg (1017.0 mb)
Winds: from the NNE (20 degrees) at 5 MPH (4 knots; 2.1 m/s)
Visibility: 6 or more miles (10+ km)
Ceiling: 3000 feet AGL
Clouds: scattered clouds at 1300 feet AGL
broken clouds at 3000 feet AGL
Weather: no significant weather observed at this time

Forecast for: LPMA (FUNCHAL/MADEIRA , PT)
Text: TAF LPMA 191700Z 1918/2018 VRB05KT 9999 SCT012 BKN030
Forecast period: 1800 UTC 19 May 2022 to 1800 UTC 20 May 2022
Forecast type: FROM: standard forecast or significant change
Winds: variable direction winds at 6 MPH (5 knots; 2.6 m/s)
Visibility: 6 or more miles (10+ km)
Ceiling: 3000 feet AGL
Clouds: scattered clouds at 1200 feet AGL
broken clouds at 3000 feet AGL
Weather: no significant weather forecast for this period
Text: BECMG 1918/1921 01010KT
Forecast period: 1800 UTC 19 May 2022 to 1800 UTC 20 May 2022
Forecast type: BECOMING: Conditions expected to become as follows by 2100 UTC 19 May 2022
Winds: from the N (10 degrees) at 12 MPH (10 knots; 5.1 m/s)
Visibility: 6 or more miles (10+ km)
Ceiling: 3000 feet AGL
Clouds: scattered clouds at 1200 feet AGL
broken clouds at 3000 feet AGL
Weather: no significant weather forecast for this period
Text: PROB40
Forecast period: 1800 UTC 19 May 2022 to 0800 UTC 20 May 2022
Forecast type: TEMPORARY: The following changes expected for less than half the time period
Visibility: 5 miles (8 km)
Ceiling: 1200 feet AGL
Clouds: broken clouds at 1200 feet AGL
Weather: -RA  (light rain)